createdAt,value
2022-09-03T00:11:50.152Z,47.89
2022-09-03T00:42:07.956Z,48.45
2022-09-03T01:12:20.223Z,49.17
2022-09-03T01:42:33.391Z,49.66
2022-09-03T02:12:38.478Z,50.31
2022-09-03T02:42:42.797Z,50.91
2022-09-03T03:12:46.926Z,51.51
2022-09-03T03:42:51.044Z,51.04
2022-09-03T04:12:56.425Z,51.53
2022-09-03T04:43:00.866Z,53.06
2022-09-03T05:13:06.506Z,53.78
2022-09-03T05:43:10.647Z,52.38
2022-09-03T06:13:14.914Z,54.11
2022-09-03T06:43:19.219Z,52.83
2022-09-03T07:13:24.563Z,55.95
2022-09-03T07:43:29.341Z,55.79
2022-09-03T08:13:33.961Z,56.91
2022-09-03T08:43:47.772Z,58.79
2022-09-03T09:13:57.592Z,50.95
2022-09-03T09:44:06.234Z,53.20
2022-09-03T10:14:18.161Z,57.88
2022-09-03T10:44:35.329Z,60.24
2022-09-03T11:14:42.129Z,51.13
2022-09-03T11:44:51.484Z,40.82
2022-09-03T12:15:03.310Z,38.97
2022-09-03T12:45:10.613Z,46.94
2022-09-03T13:15:23.282Z,48.02
2022-09-03T13:45:32.443Z,50.61
2022-09-03T14:15:45.772Z,50.59
2022-09-03T14:46:19.952Z,43.66
2022-09-03T15:16:32.753Z,47.80
2022-09-03T15:46:57.566Z,56.39
2022-09-03T16:17:04.826Z,59.50
2022-09-03T16:47:12.809Z,70.48
2022-09-03T17:17:28.044Z,75.17
2022-09-03T17:48:07.393Z,79.56
2022-09-03T18:18:18.406Z,80.71
2022-09-03T18:48:47.363Z,83.21
2022-09-03T19:19:26.660Z,83.84
2022-09-03T19:49:59.949Z,83.52
2022-09-03T20:20:14.086Z,79.23
2022-09-03T20:50:25.959Z,80.58
2022-09-03T21:20:36.259Z,83.29
2022-09-03T21:50:58.584Z,84.18
2022-09-03T22:21:13.301Z,83.16
2022-09-03T22:51:21.661Z,84.05
2022-09-03T23:21:29.945Z,83.93
2022-09-03T23:51:44.889Z,84.88
